Time;durP1;ratioP1;P1;durP2;ratioP2;P2;SDS_P1;SDS_P2;PMS_P1;PMS_P2;Temp;Humidity;BMP_temperature;BMP_pressure;BME280_temperature;BME280_humidity;BME280_pressure;Samples;Min_cycle;Max_cycle;Signal;HPM_P1;HPM_P2
2022/11/06 00:00:35;;;;;;;0.00;0.00;;;;;;;13.62;63.55;99587.97;7362218;19;20018;-58
2022/11/06 00:03:01;;;;;;;0.00;0.00;;;;;;;13.53;63.56;99583.22;7362699;19;20568;-58
2022/11/06 00:08:12;;;;;;;0.00;0.00;;;;;;;13.57;62.98;99582.13;7362731;19;20033;-57
2022/11/06 00:10:37;;;;;;;0.00;0.00;;;;;;;13.55;63.51;99574.34;7363451;19;21337;-58
2022/11/06 00:13:03;;;;;;;0.00;0.00;;;;;;;13.56;63.51;99576.03;7363281;19;20552;-58
2022/11/06 00:15:29;;;;;;;0.00;0.00;;;;;;;13.55;64.00;99566.47;7362961;19;20010;-57
2022/11/06 00:17:55;;;;;;;0.00;0.00;;;;;;;13.56;64.64;99560.31;7363780;19;20018;-58
2022/11/06 00:20:20;;;;;;;0.00;0.00;;;;;;;13.57;64.27;99567.22;7362095;19;21039;-58
2022/11/06 00:22:45;;;;;;;0.05;0.05;;;;;;;13.59;64.43;99564.56;7362937;19;20066;-57
2022/11/06 00:25:11;;;;;;;0.05;0.05;;;;;;;13.60;64.06;99547.88;7363564;19;20006;-58
2022/11/06 00:27:39;;;;;;;0.10;0.10;;;;;;;13.62;64.55;99538.97;7361874;19;20010;-56
2022/11/06 00:30:05;;;;;;;0.00;0.00;;;;;;;13.64;64.58;99534.53;7362730;19;20010;-56
2022/11/06 00:32:31;;;;;;;0.00;0.00;;;;;;;13.62;64.15;99535.50;7362713;19;20011;-58
2022/11/06 00:34:56;;;;;;;0.10;0.10;;;;;;;13.64;64.81;99529.28;7360748;19;20034;-58
2022/11/06 00:37:22;;;;;;;0.03;0.03;;;;;;;13.65;65.06;99538.81;7362067;19;20014;-58
2022/11/06 00:39:47;;;;;;;0.00;0.00;;;;;;;13.65;64.82;99533.59;7362333;19;20031;-57
2022/11/06 00:42:12;;;;;;;0.00;0.00;;;;;;;13.69;65.22;99523.78;7361579;19;20006;-58
2022/11/06 00:44:38;;;;;;;0.05;0.05;;;;;;;13.70;64.56;99517.59;7361416;19;20446;-57
2022/11/06 00:47:04;;;;;;;0.00;0.00;;;;;;;13.59;64.86;99507.69;7368146;19;20006;-58
2022/11/06 00:49:29;;;;;;;0.00;0.00;;;;;;;13.68;65.00;99507.16;7368546;19;20022;-58
2022/11/06 00:51:55;;;;;;;0.10;0.10;;;;;;;13.72;65.21;99513.94;7367107;19;20027;-57
2022/11/06 00:54:20;;;;;;;0.00;0.00;;;;;;;13.73;64.18;99510.38;7366933;19;20050;-58
2022/11/06 00:56:46;;;;;;;0.00;0.00;;;;;;;13.67;64.45;99494.97;7369866;19;20007;-57
2022/11/06 00:59:12;;;;;;;0.00;0.00;;;;;;;13.72;64.11;99499.97;7367250;19;20799;-57
2022/11/06 01:01:41;;;;;;;0.10;0.10;;;;;;;13.68;64.21;99488.81;7366722;19;20027;-58
2022/11/06 01:04:11;;;;;;;0.00;0.00;;;;;;;13.69;64.85;99487.91;7365826;19;20007;-56
2022/11/06 01:06:41;;;;;;;0.00;0.00;;;;;;;13.67;64.82;99473.16;7366401;19;20015;-58
2022/11/06 01:09:08;;;;;;;0.00;0.00;;;;;;;13.64;65.44;99474.19;7367320;19;20010;-57
2022/11/06 01:11:38;;;;;;;0.00;0.00;;;;;;;13.62;65.24;99468.16;7368180;19;20370;-58
2022/11/06 01:14:06;;;;;;;0.00;0.00;;;;;;;13.61;65.28;99469.09;7369271;19;20010;-58
2022/11/06 01:16:32;;;;;;;0.00;0.00;;;;;;;13.55;65.42;99453.69;7368326;19;20510;-58
2022/11/06 01:18:58;;;;;;;0.10;0.10;;;;;;;13.58;66.17;99444.78;7366937;19;20006;-58
2022/11/06 01:21:27;;;;;;;0.10;0.10;;;;;;;13.59;66.31;99442.13;7369176;19;20006;-57
2022/11/06 01:23:59;;;;;;;0.00;0.00;;;;;;;13.59;65.64;99444.75;7364795;19;20022;-57
2022/11/06 01:26:26;;;;;;;0.00;0.00;;;;;;;13.55;65.91;99437.97;7366983;19;20022;-58
2022/11/06 01:28:52;;;;;;;0.00;0.00;;;;;;;13.55;66.51;99443.22;7368745;19;20034;-57
2022/11/06 01:31:20;;;;;;;0.00;0.00;;;;;;;13.53;66.38;99429.31;7364881;19;20045;-58
2022/11/06 01:33:46;;;;;;;0.10;0.10;;;;;;;13.47;66.70;99419.16;7367481;19;20018;-58
2022/11/06 01:36:14;;;;;;;0.00;0.00;;;;;;;13.48;66.59;99424.34;7367323;19;20041;-57
2022/11/06 01:38:41;;;;;;;0.00;0.00;;;;;;;13.43;66.97;99423.75;7366002;19;20697;-58
2022/11/06 01:41:07;;;;;;;0.00;0.00;;;;;;;13.39;67.14;99406.50;7365387;19;20640;-56
2022/11/06 01:43:53;;;;;;;0.00;0.00;;;;;;;13.38;66.51;99403.94;7365721;19;20015;-58
2022/11/06 01:46:20;;;;;;;0.00;0.00;;;;;;;13.32;67.26;99396.41;7367280;19;20006;-58
2022/11/06 01:48:55;;;;;;;0.00;0.00;;;;;;;13.24;67.31;99387.19;7366152;19;20035;-59
2022/11/06 01:51:23;;;;;;;0.10;0.10;;;;;;;13.22;67.28;99393.44;7367433;19;20019;-57
2022/11/06 01:53:50;;;;;;;0.00;0.00;;;;;;;13.18;67.52;99390.13;7365909;19;20014;-58
2022/11/06 01:56:16;;;;;;;0.00;0.00;;;;;;;13.13;67.63;99373.81;7367012;19;20801;-57
2022/11/06 01:58:45;;;;;;;0.00;0.00;;;;;;;13.10;67.98;99363.47;7366771;19;20015;-58
2022/11/06 02:01:11;;;;;;;0.00;0.00;;;;;;;13.05;67.94;99368.13;7364576;19;20010;-58
2022/11/06 02:03:41;;;;;;;0.00;0.00;;;;;;;13.06;68.25;99371.59;7366249;19;20712;-58
2022/11/06 02:06:07;;;;;;;0.00;0.00;;;;;;;12.89;68.39;99349.75;7366163;19;20011;-58
2022/11/06 02:08:33;;;;;;;0.03;0.03;;;;;;;13.01;68.34;99358.72;7364922;19;20043;-58
2022/11/06 02:10:59;;;;;;;0.00;0.00;;;;;;;12.99;68.28;99350.13;7366033;19;20018;-58
2022/11/06 02:13:30;;;;;;;0.00;0.00;;;;;;;13.01;67.40;99347.41;7367627;19;24511;-58
2022/11/06 02:16:01;;;;;;;0.00;0.00;;;;;;;13.00;67.51;99341.31;7366160;19;20006;-58
2022/11/06 02:18:39;;;;;;;0.10;0.10;;;;;;;12.99;67.13;99352.72;7366484;19;20077;-58
2022/11/06 02:21:18;;;;;;;0.00;0.00;;;;;;;12.99;67.71;99334.38;7365887;19;20006;-57
2022/11/06 02:24:02;;;;;;;0.00;0.00;;;;;;;13.01;66.84;99327.28;7363544;19;20019;-58
2022/11/06 02:26:42;;;;;;;0.00;0.00;;;;;;;13.02;66.83;99334.22;7366930;19;20010;-58
2022/11/06 02:29:14;;;;;;;0.00;0.00;;;;;;;12.98;67.80;99322.22;7365494;19;20011;-58
2022/11/06 02:31:42;;;;;;;0.00;0.00;;;;;;;12.90;67.46;99298.19;7366016;19;20107;-57
2022/11/06 02:34:13;;;;;;;0.00;0.00;;;;;;;13.06;67.51;99319.16;7364755;19;20018;-56
2022/11/06 02:36:45;;;;;;;0.00;0.00;;;;;;;13.05;67.67;99307.84;7364871;19;20019;-57
2022/11/06 02:39:15;;;;;;;0.00;0.00;;;;;;;13.08;67.17;99307.69;7365826;19;20139;-58
2022/11/06 02:41:44;;;;;;;0.00;0.00;;;;;;;13.10;68.05;99300.56;7365707;19;20014;-58
2022/11/06 02:44:16;;;;;;;0.10;0.10;;;;;;;13.12;68.74;99282.97;7364966;19;20010;-57
2022/11/06 02:46:54;;;;;;;0.00;0.00;;;;;;;13.15;68.18;99267.09;7369347;19;20018;-56
2022/11/06 02:49:26;;;;;;;0.08;0.08;;;;;;;13.16;69.54;99258.28;7358314;19;20018;-58
2022/11/06 02:52:06;;;;;;;0.10;0.10;;;;;;;13.18;69.07;99251.19;7365349;19;20011;-57
2022/11/06 02:54:37;;;;;;;0.00;0.00;;;;;;;13.16;70.60;99245.19;7366065;19;20014;-56
2022/11/06 02:57:07;;;;;;;0.00;0.00;;;;;;;13.15;70.47;99235.63;7366246;19;20018;-57
2022/11/06 02:59:58;;;;;;;0.00;0.00;;;;;;;13.15;70.18;99235.63;7353850;19;20040;-58
2022/11/06 03:02:30;;;;;;;0.05;0.05;;;;;;;13.11;70.60;99226.25;7364893;19;20010;-58
2022/11/06 03:05:10;;;;;;;0.00;0.00;;;;;;;13.14;70.07;99228.72;7362106;19;20009;-53
2022/11/06 03:07:42;;;;;;;0.08;0.08;;;;;;;13.13;70.18;99221.78;7361761;19;20364;-57
2022/11/06 03:10:08;;;;;;;0.00;0.00;;;;;;;13.13;70.68;99232.28;7361723;19;20821;-57
2022/11/06 03:13:07;;;;;;;0.00;0.00;;;;;;;13.13;70.14;99219.16;7362783;19;20030;-56
2022/11/06 03:15:47;;;;;;;0.00;0.00;;;;;;;13.18;69.01;99209.25;7261114;19;2004117;-58
2022/11/06 03:18:20;;;;;;;0.10;0.10;;;;;;;13.17;69.45;99211.94;7361085;19;20006;-57
2022/11/06 03:21:11;;;;;;;0.10;0.10;;;;;;;13.24;67.66;99205.47;7361506;19;20018;-58
2022/11/06 03:23:47;;;;;;;0.00;0.00;;;;;;;13.23;69.04;99196.78;7358393;19;20018;-58
2022/11/06 03:26:14;;;;;;;0.00;0.00;;;;;;;13.22;68.83;99195.06;7363518;19;20039;-56
2022/11/06 03:28:59;;;;;;;0.00;0.00;;;;;;;13.30;68.11;99196.41;7359861;19;20034;-58
2022/11/06 03:31:36;;;;;;;0.00;0.00;;;;;;;13.31;68.38;99187.59;7360341;19;20086;-58
2022/11/06 03:34:09;;;;;;;0.00;0.00;;;;;;;13.34;68.29;99179.56;7363828;19;20047;-57
2022/11/06 03:36:52;;;;;;;0.00;0.00;;;;;;;13.37;68.34;99177.59;7361588;19;20777;-57
2022/11/06 03:39:27;;;;;;;0.10;0.10;;;;;;;13.41;68.76;99167.78;7362314;19;20953;-57
2022/11/06 03:42:04;;;;;;;0.00;0.00;;;;;;;13.44;68.53;99170.25;7364164;19;20014;-57
2022/11/06 03:44:31;;;;;;;0.00;0.00;;;;;;;13.43;69.16;99165.91;7362444;19;20774;-58
2022/11/06 03:47:11;;;;;;;0.00;0.00;;;;;;;13.43;68.42;99158.91;7360120;19;20473;-58
2022/11/06 03:49:45;;;;;;;0.00;0.00;;;;;;;13.50;68.91;99151.50;7361884;19;20579;-57
2022/11/06 03:52:17;;;;;;;0.00;0.00;;;;;;;13.52;68.70;99160.13;7361664;19;20031;-58
2022/11/06 03:54:50;;;;;;;0.00;0.00;;;;;;;13.45;68.71;99140.44;7364686;19;20018;-58
2022/11/06 03:57:24;;;;;;;0.00;0.00;;;;;;;13.58;68.68;99165.00;7358721;19;20440;-56
2022/11/06 03:59:56;;;;;;;0.10;0.10;;;;;;;13.58;69.33;99154.50;7361515;19;20587;-58
2022/11/06 04:02:22;;;;;;;0.00;0.00;;;;;;;13.61;69.06;99151.72;7361239;19;21570;-58
2022/11/06 04:04:54;;;;;;;0.10;0.10;;;;;;;13.64;68.96;99151.53;7350356;19;20038;-58
2022/11/06 04:07:24;;;;;;;0.00;0.00;;;;;;;13.67;69.22;99156.56;7361518;19;20014;-57
2022/11/06 04:15:41;;;;;;;0.00;0.00;;;;;;;13.75;68.62;99141.22;7256017;19;2004425;-58
2022/11/06 04:18:17;;;;;;;0.00;0.00;;;;;;;13.74;67.91;99133.47;7360139;19;20007;-58
2022/11/06 04:26:34;;;;;;;0.00;0.00;;;;;;;13.82;69.09;99130.38;7261644;19;2004600;-56
2022/11/06 04:27:02;;;;;;;0.00;0.00;;;;;;;13.84;68.85;99128.47;7259788;19;2004469;-57
2022/11/06 04:29:40;;;;;;;0.00;0.00;;;;;;;13.85;68.92;99128.41;7361733;19;20011;-58
2022/11/06 04:32:23;;;;;;;0.00;0.00;;;;;;;13.87;68.60;99128.28;7359994;19;20003;-58
2022/11/06 04:35:06;;;;;;;0.00;0.00;;;;;;;13.87;68.37;99123.06;7361766;19;20759;-56
2022/11/06 04:37:41;;;;;;;0.00;0.00;;;;;;;13.88;68.82;99114.22;7364068;19;20039;-58
2022/11/06 04:40:10;;;;;;;0.00;0.00;;;;;;;13.88;69.00;99119.47;7360785;19;20030;-58
2022/11/06 04:42:49;;;;;;;0.03;0.03;;;;;;;13.88;68.71;99103.75;7362616;19;20365;-57
2022/11/06 04:45:38;;;;;;;0.05;0.05;;;;;;;13.91;68.16;99109.66;7360770;19;20007;-58
2022/11/06 04:48:05;;;;;;;0.03;0.03;;;;;;;13.90;68.70;99099.25;7358295;19;20014;-58
2022/11/06 04:50:37;;;;;;;0.00;0.00;;;;;;;13.92;68.64;99105.25;7363244;19;20030;-58
2022/11/06 04:53:04;;;;;;;0.00;0.00;;;;;;;13.85;68.74;99093.44;7362465;19;20379;-58
2022/11/06 04:55:30;;;;;;;0.10;0.10;;;;;;;13.90;68.47;99107.13;7361246;19;20015;-57
2022/11/06 04:57:55;;;;;;;0.00;0.00;;;;;;;13.92;68.09;99107.88;7358926;19;20037;-57
2022/11/06 05:00:21;;;;;;;0.00;0.00;;;;;;;13.91;68.46;99106.19;7360386;19;20015;-58
2022/11/06 05:02:46;;;;;;;0.00;0.00;;;;;;;13.87;68.45;99081.06;7361475;19;20032;-58
2022/11/06 05:05:12;;;;;;;0.03;0.03;;;;;;;13.90;68.25;99086.13;7359753;19;20014;-58
2022/11/06 05:07:37;;;;;;;0.05;0.05;;;;;;;13.88;68.05;99082.75;7362374;19;20015;-57
2022/11/06 05:10:03;;;;;;;0.03;0.03;;;;;;;13.86;67.58;99082.00;7361065;19;20465;-57
2022/11/06 05:12:28;;;;;;;0.00;0.00;;;;;;;13.83;67.80;99083.03;7362538;19;20027;-56
2022/11/06 05:14:54;;;;;;;0.00;0.00;;;;;;;13.79;68.41;99064.94;7361616;19;20069;-58
2022/11/06 05:17:19;;;;;;;0.00;0.00;;;;;;;13.75;68.15;99062.53;7361095;19;20014;-58
2022/11/06 05:19:45;;;;;;;0.00;0.00;;;;;;;13.68;67.83;99055.97;7361201;19;20023;-58
2022/11/06 05:24:54;;;;;;;0.10;0.10;;;;;;;13.64;68.11;99046.63;7359008;19;20042;-57
2022/11/06 05:27:20;;;;;;;0.00;0.00;;;;;;;13.54;68.52;99045.50;7361611;19;21256;-58
2022/11/06 05:29:45;;;;;;;0.00;0.00;;;;;;;13.57;67.65;99052.31;7358631;19;20002;-57
2022/11/06 05:32:11;;;;;;;0.00;0.00;;;;;;;13.52;68.35;99044.72;7366453;19;20088;-57
2022/11/06 05:34:36;;;;;;;0.00;0.00;;;;;;;13.49;67.89;99039.69;7366955;19;20034;-58
2022/11/06 05:37:01;;;;;;;0.00;0.00;;;;;;;13.45;68.18;99032.94;7366883;19;20453;-58
2022/11/06 05:39:27;;;;;;;0.00;0.00;;;;;;;13.42;68.36;99027.88;7367175;19;20014;-58
2022/11/06 05:41:52;;;;;;;0.05;0.05;;;;;;;13.37;68.43;99015.03;7365080;19;20006;-58
2022/11/06 05:44:18;;;;;;;0.10;0.10;;;;;;;13.31;68.36;99014.59;7366187;19;20014;-58
2022/11/06 05:46:43;;;;;;;0.00;0.00;;;;;;;13.26;68.07;99003.53;7364513;19;20014;-58
2022/11/06 05:49:09;;;;;;;0.10;0.10;;;;;;;13.31;67.62;99004.09;7367367;19;20018;-58
2022/11/06 05:51:35;;;;;;;0.00;0.00;;;;;;;13.28;68.52;98999.91;7363506;19;20019;-57
2022/11/06 05:54:00;;;;;;;0.10;0.10;;;;;;;13.24;68.34;98994.00;7367172;19;20018;-57
2022/11/06 05:56:26;;;;;;;0.00;0.00;;;;;;;13.16;68.49;98990.09;7366132;19;20478;-58
2022/11/06 05:58:51;;;;;;;0.00;0.00;;;;;;;13.22;68.34;99005.50;7365564;19;20002;-58
2022/11/06 06:01:16;;;;;;;0.00;0.00;;;;;;;13.20;68.18;99008.19;7365711;19;20010;-57
2022/11/06 06:03:42;;;;;;;0.10;0.10;;;;;;;13.17;68.37;98999.66;7366386;19;20073;-57
2022/11/06 06:06:07;;;;;;;0.00;0.00;;;;;;;13.12;68.37;98992.06;7366797;19;20650;-58
2022/11/06 06:08:33;;;;;;;0.10;0.10;;;;;;;13.12;68.56;98985.97;7365506;19;20497;-57
2022/11/06 06:10:58;;;;;;;0.00;0.00;;;;;;;13.09;68.40;98979.16;7363529;19;20018;-58
2022/11/06 06:13:23;;;;;;;0.10;0.10;;;;;;;13.07;68.60;98972.31;7365997;19;20026;-57
2022/11/06 06:15:49;;;;;;;0.00;0.00;;;;;;;12.98;68.50;98960.63;7364855;19;20014;-57
2022/11/06 06:18:14;;;;;;;0.00;0.00;;;;;;;13.03;68.28;98979.53;7365369;19;20078;-57
2022/11/06 06:20:40;;;;;;;0.10;0.10;;;;;;;13.02;68.48;98967.34;7363959;19;20053;-57
2022/11/06 06:23:05;;;;;;;0.00;0.00;;;;;;;12.88;67.81;98949.03;7366860;19;20022;-58
2022/11/06 06:25:31;;;;;;;0.10;0.10;;;;;;;12.98;68.58;98969.34;7364330;19;20093;-58
2022/11/06 06:27:57;;;;;;;0.00;0.00;;;;;;;12.90;68.22;98941.91;7366733;19;20055;-57
2022/11/06 06:30:23;;;;;;;0.08;0.08;;;;;;;12.96;68.53;98955.47;7363510;19;20017;-57
2022/11/06 06:32:50;;;;;;;0.00;0.00;;;;;;;12.94;68.64;98954.72;7365838;19;20466;-55
2022/11/06 06:35:16;;;;;;;0.00;0.00;;;;;;;12.94;68.09;98954.72;7365633;19;20010;-57
2022/11/06 06:38:02;;;;;;;0.00;0.00;;;;;;;12.93;68.18;98952.22;7364580;19;20432;-57
2022/11/06 06:40:29;;;;;;;0.00;0.00;;;;;;;12.93;68.02;98947.81;7365572;19;20018;-58
2022/11/06 06:42:56;;;;;;;0.00;0.00;;;;;;;12.93;68.28;98949.59;7364348;19;20466;-56
2022/11/06 06:45:22;;;;;;;0.00;0.00;;;;;;;12.92;68.08;98945.25;7366479;19;20022;-57
2022/11/06 06:47:48;;;;;;;0.10;0.10;;;;;;;12.90;68.59;98947.13;7366554;19;20013;-55
2022/11/06 06:50:13;;;;;;;0.00;0.00;;;;;;;12.91;67.95;98948.81;7365313;19;20010;-57
2022/11/06 06:52:38;;;;;;;0.00;0.00;;;;;;;12.90;68.13;98941.91;7365991;19;20018;-56
2022/11/06 06:55:05;;;;;;;0.00;0.00;;;;;;;12.80;67.97;98917.19;7366378;19;20346;-56
2022/11/06 06:57:30;;;;;;;0.03;0.03;;;;;;;12.90;68.15;98936.66;7364879;19;20022;-57
2022/11/06 06:59:56;;;;;;;0.05;0.05;;;;;;;12.89;67.87;98934.97;7353961;19;20015;-57
2022/11/06 07:02:21;;;;;;;0.00;0.00;;;;;;;12.89;68.17;98924.50;7363445;19;20018;-58
2022/11/06 07:04:46;;;;;;;0.00;0.00;;;;;;;12.86;68.44;98917.66;7363330;19;20006;-58
2022/11/06 07:07:12;;;;;;;0.00;0.00;;;;;;;12.86;67.62;98925.50;7361725;19;20022;-58
2022/11/06 07:09:37;;;;;;;0.10;0.10;;;;;;;12.85;67.78;98923.00;7362676;19;20010;-58
2022/11/06 07:12:03;;;;;;;0.00;0.00;;;;;;;12.82;67.77;98912.69;7361516;19;20006;-57
2022/11/06 07:14:28;;;;;;;0.00;0.00;;;;;;;12.81;67.81;98927.56;7362769;19;20011;-57
2022/11/06 07:16:54;;;;;;;0.00;0.00;;;;;;;12.80;67.93;98914.56;7359742;19;20049;-57
2022/11/06 07:19:19;;;;;;;0.00;0.00;;;;;;;12.79;67.76;98918.13;7363469;19;20011;-58
2022/11/06 07:21:45;;;;;;;0.10;0.10;;;;;;;12.76;68.27;98918.31;7363188;19;20015;-57
2022/11/06 07:24:10;;;;;;;0.00;0.00;;;;;;;12.73;67.59;98901.00;7362835;19;20019;-58
2022/11/06 07:26:36;;;;;;;0.00;0.00;;;;;;;12.71;67.74;98906.31;7364041;19;21066;-58
2022/11/06 07:29:01;;;;;;;0.00;0.00;;;;;;;12.69;67.95;98913.44;7359887;19;20739;-57
2022/11/06 07:31:26;;;;;;;0.00;0.00;;;;;;;12.66;68.22;98905.75;7361291;19;20022;-58
2022/11/06 07:33:52;;;;;;;0.10;0.10;;;;;;;12.64;68.07;98907.63;7363093;19;20010;-58
2022/11/06 07:36:17;;;;;;;0.00;0.00;;;;;;;12.53;68.13;98896.13;7363588;19;20600;-58
2022/11/06 07:38:43;;;;;;;0.00;0.00;;;;;;;12.59;68.30;98912.31;7359465;19;20021;-58
2022/11/06 07:41:13;;;;;;;0.00;0.00;;;;;;;12.52;68.03;98895.28;7364932;19;20386;-56
2022/11/06 07:43:40;;;;;;;0.00;0.00;;;;;;;12.55;68.40;98910.78;7361548;19;20474;-57
2022/11/06 07:46:07;;;;;;;0.03;0.03;;;;;;;12.53;68.46;98911.84;7363773;19;20034;-55
2022/11/06 07:48:33;;;;;;;;;;;;;;;12.53;67.22;98907.44;7360818;19;21097;-57
2022/11/06 07:51:02;;;;;;;0.00;0.00;;;;;;;12.49;68.10;98910.34;7362486;19;19922;-57
2022/11/06 07:53:28;;;;;;;0.00;0.00;;;;;;;12.45;67.89;98909.66;7362499;19;20010;-57
2022/11/06 07:55:55;;;;;;;0.00;0.00;;;;;;;12.40;68.34;98911.72;7363610;19;20010;-57
2022/11/06 07:58:22;;;;;;;0.10;0.10;;;;;;;12.39;68.39;98910.03;7362250;19;20006;-58
2022/11/06 08:00:52;;;;;;;0.03;0.03;;;;;;;12.36;68.42;98920.66;7363577;19;20038;-58
2022/11/06 08:03:18;;;;;;;0.00;0.00;;;;;;;12.34;68.49;98917.31;7357110;19;20437;-58
2022/11/06 08:05:44;;;;;;;0.00;0.00;;;;;;;12.32;68.85;98909.56;7360652;19;20010;-58
2022/11/06 08:08:10;;;;;;;0.00;0.00;;;;;;;12.33;67.92;98915.63;7362492;19;20010;-58
2022/11/06 08:10:39;;;;;;;0.10;0.10;;;;;;;12.32;68.80;98911.34;7362771;19;20796;-58
2022/11/06 08:13:05;;;;;;;0.00;0.00;;;;;;;12.32;68.53;98911.34;7361574;19;20545;-57
2022/11/06 08:15:31;;;;;;;0.00;0.00;;;;;;;12.29;68.80;98898.41;7363413;19;20957;-57
2022/11/06 08:17:58;;;;;;;0.00;0.00;;;;;;;12.34;68.44;98901.59;7360216;19;20010;-58
2022/11/06 08:20:23;;;;;;;0.00;0.00;;;;;;;12.35;69.02;98898.03;7361141;19;20407;-57
2022/11/06 08:22:49;;;;;;;0.00;0.00;;;;;;;12.37;69.00;98896.19;7361628;19;20010;-58
2022/11/06 08:25:14;;;;;;;0.00;0.00;;;;;;;12.38;69.07;98895.25;7361233;19;20011;-57
2022/11/06 08:27:39;;;;;;;0.10;0.10;;;;;;;12.41;68.85;98895.06;7358759;19;20014;-57
2022/11/06 08:30:05;;;;;;;0.00;0.00;;;;;;;12.46;68.60;98893.00;7360264;19;20036;-56
2022/11/06 08:32:31;;;;;;;0.00;0.00;;;;;;;12.46;69.23;98895.63;7360560;19;20002;-58
2022/11/06 08:34:56;;;;;;;0.00;0.00;;;;;;;12.51;68.97;98900.59;7349586;19;20017;-57
2022/11/06 08:37:22;;;;;;;0.00;0.00;;;;;;;12.53;69.18;98902.22;7361376;19;20007;-58
2022/11/06 08:39:47;;;;;;;0.00;0.00;;;;;;;12.56;68.68;98907.25;7359157;19;20029;-55
2022/11/06 08:42:13;;;;;;;0.00;0.00;;;;;;;12.59;68.76;98895.75;7360357;19;20019;-57
2022/11/06 08:44:38;;;;;;;0.10;0.10;;;;;;;12.64;69.25;98897.16;7360947;19;20027;-58
2022/11/06 08:47:04;;;;;;;0.00;0.00;;;;;;;12.68;68.68;98885.56;7359783;19;20006;-57
2022/11/06 08:49:29;;;;;;;0.00;0.00;;;;;;;12.82;69.12;98894.34;7359546;19;20014;-58
2022/11/06 08:51:55;;;;;;;0.00;0.00;;;;;;;12.91;69.06;98891.19;7358641;19;20085;-57
2022/11/06 08:54:20;;;;;;;0.00;0.00;;;;;;;13.00;68.96;98874.91;7359508;19;20098;-58
2022/11/06 08:56:45;;;;;;;0.00;0.00;;;;;;;13.14;68.40;98877.50;7359816;19;20017;-58
2022/11/06 08:59:11;;;;;;;0.00;0.00;;;;;;;13.19;68.20;98851.84;7355922;19;20033;-58
2022/11/06 09:01:36;;;;;;;0.00;0.00;;;;;;;13.48;68.06;98883.28;7357430;19;20477;-57
2022/11/06 09:04:02;;;;;;;0.00;0.00;;;;;;;13.70;69.08;98865.22;7359180;19;20089;-58
2022/11/06 09:06:27;;;;;;;0.00;0.00;;;;;;;13.90;67.76;98860.47;7355679;19;20390;-57
2022/11/06 09:08:53;;;;;;;0.00;0.00;;;;;;;14.10;67.15;98877.53;7360777;19;20022;-58
2022/11/06 09:11:18;;;;;;;0.00;0.00;;;;;;;14.28;66.56;98877.13;7361651;19;20445;-58
2022/11/06 09:13:43;;;;;;;0.00;0.00;;;;;;;14.42;65.22;98864.88;7364483;19;20042;-58
2022/11/06 09:16:09;;;;;;;0.00;0.00;;;;;;;14.46;65.17;98864.56;7363256;19;20017;-57
2022/11/06 09:18:34;;;;;;;0.05;0.05;;;;;;;14.50;64.54;98870.47;7364882;19;21040;-58
2022/11/06 09:20:59;;;;;;;0.00;0.00;;;;;;;14.54;64.70;98877.19;7363839;19;20066;-58
2022/11/06 09:23:25;;;;;;;0.00;0.00;;;;;;;14.55;64.42;98878.88;7366379;19;20796;-58
2022/11/06 09:25:50;;;;;;;0.00;0.00;;;;;;;14.58;64.61;98873.41;7366800;19;20014;-58
2022/11/06 09:28:16;;;;;;;0.00;0.00;;;;;;;14.56;64.11;98864.81;7367076;19;20029;-57
2022/11/06 09:30:41;;;;;;;0.05;0.05;;;;;;;14.55;63.90;98857.88;7367729;19;20461;-57
2022/11/06 09:33:07;;;;;;;0.00;0.00;;;;;;;14.54;63.64;98856.16;7365950;19;20007;-58
2022/11/06 09:35:33;;;;;;;0.00;0.00;;;;;;;14.54;64.08;98850.91;7369610;19;20145;-57
2022/11/06 09:38:25;;;;;;;0.10;0.10;;;;;;;14.65;65.33;98858.94;7364424;19;20041;-58
2022/11/06 09:40:54;;;;;;;0.10;0.10;;;;;;;14.62;63.93;98840.75;7264996;19;2004489;-58
2022/11/06 09:43:57;;;;;;;0.00;0.00;;;;;;;14.77;64.27;98844.94;7364234;19;20112;-58
2022/11/06 09:46:43;;;;;;;0.00;0.00;;;;;;;14.70;63.10;98835.81;7264856;19;2004394;-56
2022/11/06 09:49:50;;;;;;;0.10;0.10;;;;;;;14.84;63.81;98850.59;7367491;19;20362;-57
2022/11/06 09:52:35;;;;;;;0.00;0.00;;;;;;;14.87;63.52;98849.56;7259868;19;2004402;-57
2022/11/06 09:55:21;;;;;;;0.00;0.00;;;;;;;14.79;62.22;98848.28;7365882;19;20414;-58
2022/11/06 09:57:54;;;;;;;0.10;0.10;;;;;;;14.85;63.25;98851.44;7363830;19;20080;-56
2022/11/06 10:00:20;;;;;;;0.00;0.00;;;;;;;14.83;62.74;98846.28;7366904;19;20866;-58
2022/11/06 10:02:53;;;;;;;0.10;0.10;;;;;;;14.87;62.45;98829.38;7366288;19;20017;-58
2022/11/06 10:05:37;;;;;;;0.00;0.00;;;;;;;14.98;63.36;98833.84;7365825;19;20027;-58
2022/11/06 10:08:06;;;;;;;0.00;0.00;;;;;;;15.00;62.70;98827.56;7366862;19;20081;-58
2022/11/06 10:10:49;;;;;;;0.10;0.10;;;;;;;15.13;63.11;98831.94;7368130;19;20007;-58
2022/11/06 10:13:45;;;;;;;0.10;0.10;;;;;;;15.22;63.50;98834.75;7366178;19;20057;-58
2022/11/06 10:16:22;;;;;;;0.10;0.10;;;;;;;15.41;63.29;98836.03;7254911;19;2004448;-58
2022/11/06 10:18:59;;;;;;;0.10;0.10;;;;;;;15.56;63.06;98840.19;7336353;19;20002;-58
2022/11/06 10:21:41;;;;;;;0.10;0.10;;;;;;;15.69;62.19;98832.28;7349994;19;20010;-58
2022/11/06 10:24:26;;;;;;;0.00;0.00;;;;;;;15.81;62.11;98831.38;7349570;19;20111;-58
2022/11/06 10:26:55;;;;;;;0.00;0.00;;;;;;;15.89;61.51;98825.56;7344953;19;20792;-58
2022/11/06 10:29:51;;;;;;;0.00;0.00;;;;;;;16.00;62.63;98822.94;7348419;19;20082;-58
2022/11/06 10:32:59;;;;;;;0.10;0.10;;;;;;;16.06;62.30;98823.31;7254092;19;2004451;-58
2022/11/06 10:35:49;;;;;;;0.00;0.00;;;;;;;16.18;61.49;98821.56;7243858;19;2004325;-58
2022/11/06 10:38:21;;;;;;;0.10;0.10;;;;;;;16.38;62.20;98827.13;7347164;19;20023;-57
2022/11/06 10:40:52;;;;;;;0.10;0.10;;;;;;;16.58;60.41;98818.53;7353123;19;20867;-56
2022/11/06 10:43:25;;;;;;;0.10;0.10;;;;;;;16.80;60.65;98813.28;7351910;19;20026;-58
2022/11/06 10:45:57;;;;;;;0.10;0.10;;;;;;;17.14;60.02;98810.63;7354250;19;20034;-58
2022/11/06 10:48:29;;;;;;;0.10;0.10;;;;;;;17.42;59.16;98809.22;7352634;19;20014;-57
2022/11/06 10:51:03;;;;;;;0.00;0.00;;;;;;;17.61;58.11;98801.47;7353068;19;20010;-58
2022/11/06 10:53:55;;;;;;;0.00;0.00;;;;;;;18.01;59.72;98794.75;7354840;19;20006;-58
2022/11/06 10:56:33;;;;;;;0.00;0.00;;;;;;;18.21;58.98;98785.16;7250045;19;2004468;-58
2022/11/06 10:58:58;;;;;;;0.05;0.05;;;;;;;18.49;56.88;98802.13;7352218;19;20588;-58
2022/11/06 11:01:24;;;;;;;0.10;0.10;;;;;;;18.67;55.23;98797.91;7352381;19;20033;-55
2022/11/06 11:03:50;;;;;;;0.10;0.10;;;;;;;18.83;54.37;98798.28;7348986;19;20664;-56
2022/11/06 11:06:16;;;;;;;0.00;0.00;;;;;;;18.79;54.03;98775.69;7354701;19;20589;-56
2022/11/06 11:08:42;;;;;;;0.10;0.10;;;;;;;18.91;54.05;98782.56;7353017;19;20011;-55
2022/11/06 11:11:14;;;;;;;0.10;0.10;;;;;;;19.06;55.16;98787.47;7348511;19;20019;-55
2022/11/06 11:13:43;;;;;;;0.00;0.00;;;;;;;19.14;54.17;98785.00;7350497;19;20010;-56
2022/11/06 11:16:20;;;;;;;0.10;0.10;;;;;;;19.25;55.18;98782.22;7352393;19;20748;-55
2022/11/06 11:18:46;;;;;;;0.10;0.10;;;;;;;19.27;53.24;98784.75;7345227;19;20024;-56
2022/11/06 11:21:17;;;;;;;0.10;0.10;;;;;;;19.37;53.54;98786.44;7345470;19;20018;-56
2022/11/06 11:24:08;;;;;;;0.10;0.10;;;;;;;19.40;54.61;98772.91;7347162;19;20013;-56
2022/11/06 11:26:38;;;;;;;0.10;0.10;;;;;;;19.35;51.61;98771.66;7343819;19;20014;-55
2022/11/06 11:29:20;;;;;;;0.10;0.10;;;;;;;19.25;51.61;98753.13;7343346;19;20086;-55
2022/11/06 11:31:50;;;;;;;0.10;0.10;;;;;;;19.10;50.71;98767.72;7345167;19;20081;-56
2022/11/06 11:34:22;;;;;;;0.10;0.10;;;;;;;18.89;51.50;98766.00;7352983;19;20003;-56
2022/11/06 11:36:56;;;;;;;0.03;0.03;;;;;;;18.75;52.58;98766.34;7357233;19;20466;-55
2022/11/06 11:39:27;;;;;;;0.10;0.10;;;;;;;18.58;51.49;98759.03;7355816;19;20010;-55
2022/11/06 11:41:53;;;;;;;0.00;0.00;;;;;;;18.41;52.25;98753.41;7357805;19;20032;-56
2022/11/06 11:44:19;;;;;;;0.10;0.10;;;;;;;18.27;51.70;98748.47;7355466;19;23829;-55
2022/11/06 11:46:50;;;;;;;0.00;0.00;;;;;;;18.24;53.35;98751.34;7357035;19;20018;-56
2022/11/06 11:49:27;;;;;;;0.03;0.03;;;;;;;18.21;53.67;98742.88;7354369;19;20006;-54
2022/11/06 11:51:53;;;;;;;;;;;;;;;18.21;54.90;98732.31;7357527;19;20010;-55
2022/11/06 11:54:22;;;;;;;0.00;0.00;;;;;;;18.15;52.32;98734.50;7354379;19;19919;-54
2022/11/06 11:56:50;;;;;;;0.03;0.03;;;;;;;18.10;52.08;98722.66;7352763;19;20836;-56
2022/11/06 11:59:41;;;;;;;0.10;0.10;;;;;;;18.11;53.60;98732.25;7350575;19;20014;-55
2022/11/06 12:02:46;;;;;;;0.10;0.10;;;;;;;18.01;53.25;98726.91;7352935;19;20003;-56